Time;durP1;ratioP1;P1;durP2;ratioP2;P2;SDS_P1;SDS_P2;PMS_P1;PMS_P2;Temp;Humidity;BMP_temperature;BMP_pressure;BME280_temperature;BME280_humidity;BME280_pressure;Samples;Min_cycle;Max_cycle;Signal;HPM_P1;HPM_P2
2021/07/26 00:00:52;;;;;;;;;;;;;;;;;;2103429;28;1240;-93
2021/07/26 00:01:54;;;;;;;;;;;;;;;;;;2103666;28;1425;-93
2021/07/26 00:02:56;;;;;;;;;;;;;;;;;;2107488;28;1512;-93
2021/07/26 00:03:57;;;;;;;;;;;;;;;;;;2108029;28;2012;-93
2021/07/26 00:04:58;;;;;;;;;;;;;;;;;;2116378;28;1121;-93
2021/07/26 00:05:59;;;;;;;;;;;;;;;;;;2124479;27;1290;-93
2021/07/26 00:07:02;;;;;;;;;;;;;;;;;;2124086;28;1314;-93
2021/07/26 00:08:03;;;;;;;;;;;;;;;;;;2108038;28;1427;-93
2021/07/26 00:09:05;;;;;;;;;;;;;;;;;;2112902;28;1415;-93
2021/07/26 00:10:06;;;;;;;;;;;;;;;;;;2116292;28;797;-93
2021/07/26 00:11:08;;;;;;;;;;;;;;;;;;2115817;28;1289;-93
2021/07/26 00:12:09;;;;;;;;;;;;;;;;;;2107903;28;1444;-94
2021/07/26 00:13:11;;;;;;;;;;;;;;;;;;2100845;28;1366;-94
2021/07/26 00:14:12;;;;;;;;;;;;;;;;;;2103130;28;1408;-94
2021/07/26 00:15:14;;;;;;;;;;;;;;;;;;2099169;28;2316;-94
2021/07/26 00:16:15;;;;;;;;;;;;;;;;;;2099438;28;1362;-93
2021/07/26 00:17:18;;;;;;;;;;;;;;;;;;2107172;28;1300;-93
2021/07/26 00:18:19;;;;;;;;;;;;;;;;;;2107961;28;1420;-93
2021/07/26 00:19:21;;;;;;;;;;;;;;;;;;2107341;28;1234;-94
2021/07/26 00:20:22;;;;;;;;;;;;;;;;;;2116332;28;1276;-93
2021/07/26 00:21:24;;;;;;;;;;;;;;;;;;2116389;28;1300;-94
2021/07/26 00:22:24;;;;;;;;;;;;;;;;;;2115783;28;1531;-94
2021/07/26 00:23:27;;;;;;;;;;;;;;;;;;2115911;28;1454;-93
2021/07/26 00:24:28;;;;;;;;;;;;;;;;;;2115165;28;2081;-94
2021/07/26 00:25:29;;;;;;;;;;;;;;;;;;2113009;28;1292;-93
2021/07/26 00:26:30;;;;;;;;;;;;;;;;;;2104241;28;1383;-93
2021/07/26 00:27:32;;;;;;;;;;;;;;;;;;2104686;28;1327;-93
2021/07/26 00:28:35;;;;;;;;;;;;;;;;;;2104964;28;1407;-93
2021/07/26 00:29:37;;;;;;;;;;;;;;;;;;2106672;28;2052;-92
2021/07/26 00:30:38;;;;;;;;;;;;;;;;;;2104663;28;1390;-93
2021/07/26 00:31:40;;;;;;;;;;;;;;;;;;2107564;28;1312;-93
2021/07/26 00:32:42;;;;;;;;;;;;;;;;;;2107851;28;1282;-93
2021/07/26 00:34:06;;;;;;;;;;;;;;;;;;2099329;28;1779;-93
2021/07/26 00:35:08;;;;;;;;;;;;;;;;;;2094116;28;1972;-93
2021/07/26 00:36:09;;;;;;;;;;;;;;;;;;2103401;28;1344;-93
2021/07/26 00:37:10;;;;;;;;;;;;;;;;;;2107688;28;1422;-93
2021/07/26 00:38:11;;;;;;;;;;;;;;;;;;2099234;28;1332;-93
2021/07/26 00:39:14;;;;;;;;;;;;;;;;;;2099188;28;2021;-93
2021/07/26 00:40:15;;;;;;;;;;;;;;;;;;2107746;28;1226;-93
2021/07/26 00:41:18;;;;;;;;;;;;;;;;;;2108146;28;1450;-93
2021/07/26 00:42:20;;;;;;;;;;;;;;;;;;2108934;28;1386;-94
2021/07/26 00:43:20;;;;;;;;;;;;;;;;;;2109257;28;1370;-93
2021/07/26 00:44:23;;;;;;;;;;;;;;;;;;2109100;28;2032;-94
2021/07/26 00:45:25;;;;;;;;;;;;;;;;;;2103954;28;1295;-92
2021/07/26 00:46:27;;;;;;;;;;;;;;;;;;2100972;28;1492;-92
2021/07/26 00:47:29;;;;;;;;;;;;;;;;;;2109462;28;1013;-92
2021/07/26 00:48:31;;;;;;;;;;;;;;;;;;2109036;28;1340;-93
2021/07/26 00:49:32;;;;;;;;;;;;;;;;;;2107684;28;1873;-92
2021/07/26 00:50:33;;;;;;;;;;;;;;;;;;2109312;28;1323;-92
2021/07/26 00:51:34;;;;;;;;;;;;;;;;;;2108367;28;1319;-92
2021/07/26 00:52:36;;;;;;;;;;;;;;;;;;2107288;28;1720;-93
2021/07/26 00:53:37;;;;;;;;;;;;;;;;;;2105589;28;1441;-92
2021/07/26 00:54:40;;;;;;;;;;;;;;;;;;2115481;28;1691;-92
2021/07/26 00:55:41;;;;;;;;;;;;;;;;;;2109108;28;1386;-89
2021/07/26 00:56:44;;;;;;;;;;;;;;;;;;2100819;28;1307;-92
2021/07/26 00:57:44;;;;;;;;;;;;;;;;;;2109449;28;2073;-92
2021/07/26 00:58:47;;;;;;;;;;;;;;;;;;2108959;28;1874;-92
2021/07/26 00:59:49;;;;;;;;;;;;;;;;;;2117556;28;835;-92
2021/07/26 01:00:50;;;;;;;;;;;;;;;;;;2109527;28;1331;-92
2021/07/26 01:01:52;;;;;;;;;;;;;;;;;;2109042;28;1452;-92
2021/07/26 01:02:53;;;;;;;;;;;;;;;;;;2116670;27;1405;-92
2021/07/26 01:03:57;;;;;;;;;;;;;;;;;;2117254;28;1472;-91
2021/07/26 01:04:57;;;;;;;;;;;;;;;;;;2109320;28;1380;-92
2021/07/26 01:05:59;;;;;;;;;;;;;;;;;;2100496;28;1306;-92
2021/07/26 01:07:00;;;;;;;;;;;;;;;;;;2109224;27;1337;-92
2021/07/26 01:08:02;;;;;;;;;;;;;;;;;;2117596;28;2034;-92
2021/07/26 01:09:03;;;;;;;;;;;;;;;;;;2106464;28;1371;-92
2021/07/26 01:10:07;;;;;;;;;;;;;;;;;;2100455;28;1553;-92
2021/07/26 01:11:08;;;;;;;;;;;;;;;;;;2101319;28;1301;-92
2021/07/26 01:12:10;;;;;;;;;;;;;;;;;;2124902;27;1443;-92
2021/07/26 01:13:10;;;;;;;;;;;;;;;;;;2100656;28;1322;-92
2021/07/26 01:14:15;;;;;;;;;;;;;;;;;;2100814;28;1365;-92
2021/07/26 01:15:16;;;;;;;;;;;;;;;;;;2109550;28;1984;-92
2021/07/26 01:16:18;;;;;;;;;;;;;;;;;;2108893;28;1298;-92
2021/07/26 01:17:45;;;;;;;;;;;;;;;;;;2108468;28;1374;-92
2021/07/26 01:18:45;;;;;;;;;;;;;;;;;;2076574;28;1532;-92
2021/07/26 01:19:50;;;;;;;;;;;;;;;;;;2109117;28;1330;-92
2021/07/26 01:20:53;;;;;;;;;;;;;;;;;;2108893;28;1334;-92
2021/07/26 01:21:54;;;;;;;;;;;;;;;;;;2109061;28;1448;-92
2021/07/26 01:22:55;;;;;;;;;;;;;;;;;;2100373;28;1447;-92
2021/07/26 01:23:57;;;;;;;;;;;;;;;;;;2100814;28;1339;-92
2021/07/26 01:24:57;;;;;;;;;;;;;;;;;;2108781;28;1285;-92
2021/07/26 01:25:59;;;;;;;;;;;;;;;;;;2108659;28;1522;-92
2021/07/26 01:27:01;;;;;;;;;;;;;;;;;;2116721;28;1382;-92
2021/07/26 01:28:02;;;;;;;;;;;;;;;;;;2116979;28;1322;-93
2021/07/26 01:29:05;;;;;;;;;;;;;;;;;;2116999;28;1187;-93
2021/07/26 01:30:06;;;;;;;;;;;;;;;;;;2108771;28;1220;-93
2021/07/26 01:31:10;;;;;;;;;;;;;;;;;;2108845;28;1180;-92
2021/07/26 01:32:10;;;;;;;;;;;;;;;;;;2110657;28;2074;-92
2021/07/26 01:33:13;;;;;;;;;;;;;;;;;;2118098;28;905;-92
2021/07/26 01:34:15;;;;;;;;;;;;;;;;;;2117424;28;1275;-93
2021/07/26 01:35:16;;;;;;;;;;;;;;;;;;2108471;28;1980;-93
2021/07/26 01:36:21;;;;;;;;;;;;;;;;;;2108853;28;1352;-92
2021/07/26 01:37:23;;;;;;;;;;;;;;;;;;2109197;28;839;-92
2021/07/26 01:38:25;;;;;;;;;;;;;;;;;;2100252;28;1278;-92
2021/07/26 01:39:27;;;;;;;;;;;;;;;;;;2098127;28;1815;-92
2021/07/26 01:40:28;;;;;;;;;;;;;;;;;;2108840;28;1326;-92
2021/07/26 01:41:35;;;;;;;;;;;;;;;;;;2116812;28;1344;-92
2021/07/26 01:42:40;;;;;;;;;;;;;;;;;;2104521;28;1811;-93
2021/07/26 01:44:01;;;;;;;;;;;;;;;;;;2100605;28;1459;-90
2021/07/26 01:45:02;;;;;;;;;;;;;;;;;;2105881;28;1293;-90
2021/07/26 01:46:07;;;;;;;;;;;;;;;;;;2116952;28;1459;-92
2021/07/26 01:47:09;;;;;;;;;;;;;;;;;;2099996;28;2047;-93
2021/07/26 01:48:16;;;;;;;;;;;;;;;;;;2101014;28;788;-92
2021/07/26 01:49:48;;;;;;;;;;;;;;;;;;2107926;28;1406;-92
2021/07/26 01:50:51;;;;;;;;;;;;;;;;;;2091446;28;1289;-93
2021/07/26 01:51:55;;;;;;;;;;;;;;;;;;2087007;28;1324;-92
2021/07/26 01:52:56;;;;;;;;;;;;;;;;;;2078501;28;1165;-92
2021/07/26 01:53:59;;;;;;;;;;;;;;;;;;2108874;28;1209;-92
2021/07/26 01:54:59;;;;;;;;;;;;;;;;;;2100115;28;1466;-92
2021/07/26 01:56:01;;;;;;;;;;;;;;;;;;2092295;28;1910;-92
2021/07/26 01:57:02;;;;;;;;;;;;;;;;;;2092342;28;1505;-92
2021/07/26 01:58:04;;;;;;;;;;;;;;;;;;2108261;28;1928;-92
2021/07/26 01:59:06;;;;;;;;;;;;;;;;;;2105577;28;1985;-92
2021/07/26 02:00:08;;;;;;;;;;;;;;;;;;2100493;28;1338;-94
2021/07/26 02:01:09;;;;;;;;;;;;;;;;;;2091603;28;1392;-93
2021/07/26 02:02:11;;;;;;;;;;;;;;;;;;2092322;28;2103;-93
2021/07/26 02:03:12;;;;;;;;;;;;;;;;;;2100416;28;819;-93
2021/07/26 02:04:14;;;;;;;;;;;;;;;;;;2114357;28;1308;-93
2021/07/26 02:05:15;;;;;;;;;;;;;;;;;;2109039;28;1321;-92
2021/07/26 02:06:17;;;;;;;;;;;;;;;;;;2108485;28;1389;-93
2021/07/26 02:07:19;;;;;;;;;;;;;;;;;;2108308;28;1239;-92
2021/07/26 02:08:21;;;;;;;;;;;;;;;;;;2117124;28;1093;-93
2021/07/26 02:09:21;;;;;;;;;;;;;;;;;;2111445;28;1395;-93
2021/07/26 02:10:23;;;;;;;;;;;;;;;;;;2116447;28;1125;-94
2021/07/26 02:11:24;;;;;;;;;;;;;;;;;;2108730;28;1364;-92
2021/07/26 02:12:26;;;;;;;;;;;;;;;;;;2089903;28;1214;-93
2021/07/26 02:13:27;;;;;;;;;;;;;;;;;;2099985;28;1190;-93
2021/07/26 02:14:29;;;;;;;;;;;;;;;;;;2100030;28;1338;-92
2021/07/26 02:15:29;;;;;;;;;;;;;;;;;;2091647;28;1981;-93
2021/07/26 02:16:31;;;;;;;;;;;;;;;;;;2091529;28;1418;-93
2021/07/26 02:17:32;;;;;;;;;;;;;;;;;;2095278;28;2007;-93
2021/07/26 02:18:34;;;;;;;;;;;;;;;;;;2087832;28;1411;-91
2021/07/26 02:19:35;;;;;;;;;;;;;;;;;;2085072;28;2086;-93
2021/07/26 02:20:37;;;;;;;;;;;;;;;;;;2099808;28;1561;-93
2021/07/26 02:21:37;;;;;;;;;;;;;;;;;;2100508;28;1277;-92
2021/07/26 02:22:41;;;;;;;;;;;;;;;;;;2095285;28;2081;-92
2021/07/26 02:23:41;;;;;;;;;;;;;;;;;;2116967;27;1346;-92
2021/07/26 02:24:44;;;;;;;;;;;;;;;;;;2109334;28;1122;-93
2021/07/26 02:25:44;;;;;;;;;;;;;;;;;;2091563;28;1324;-92
2021/07/26 02:26:46;;;;;;;;;;;;;;;;;;2087175;28;1356;-92
2021/07/26 02:27:47;;;;;;;;;;;;;;;;;;2102051;28;1393;-92
2021/07/26 02:28:48;;;;;;;;;;;;;;;;;;2103840;28;1728;-92
2021/07/26 02:29:49;;;;;;;;;;;;;;;;;;2091681;28;1227;-91
2021/07/26 02:30:51;;;;;;;;;;;;;;;;;;2109342;28;1402;-92
2021/07/26 02:31:52;;;;;;;;;;;;;;;;;;2117225;28;902;-92
2021/07/26 02:32:54;;;;;;;;;;;;;;;;;;2108233;28;1233;-92
2021/07/26 02:33:54;;;;;;;;;;;;;;;;;;2099969;28;1497;-92
2021/07/26 02:34:57;;;;;;;;;;;;;;;;;;2116429;28;1526;-93
2021/07/26 02:35:57;;;;;;;;;;;;;;;;;;2116629;28;2248;-92
2021/07/26 02:36:59;;;;;;;;;;;;;;;;;;2099772;28;1243;-93
2021/07/26 02:38:01;;;;;;;;;;;;;;;;;;2093218;28;1251;-93
2021/07/26 02:39:03;;;;;;;;;;;;;;;;;;2117059;28;1044;-92
2021/07/26 02:40:04;;;;;;;;;;;;;;;;;;2116531;28;1306;-92
2021/07/26 02:41:09;;;;;;;;;;;;;;;;;;2098049;28;1396;-93
2021/07/26 02:42:10;;;;;;;;;;;;;;;;;;2093194;28;2048;-92
2021/07/26 02:43:12;;;;;;;;;;;;;;;;;;2099980;28;1332;-93
2021/07/26 02:44:12;;;;;;;;;;;;;;;;;;2099877;28;1272;-92
2021/07/26 02:45:16;;;;;;;;;;;;;;;;;;2099667;28;1245;-92
2021/07/26 02:46:16;;;;;;;;;;;;;;;;;;2100274;28;1379;-91
2021/07/26 02:47:18;;;;;;;;;;;;;;;;;;2099987;28;1534;-92
2021/07/26 02:48:19;;;;;;;;;;;;;;;;;;2108107;28;1278;-91
2021/07/26 02:49:21;;;;;;;;;;;;;;;;;;2107781;28;1445;-93
2021/07/26 02:50:21;;;;;;;;;;;;;;;;;;2099798;28;1361;-93
2021/07/26 02:51:23;;;;;;;;;;;;;;;;;;2108151;28;1336;-92
2021/07/26 02:52:24;;;;;;;;;;;;;;;;;;2099473;28;2022;-92
2021/07/26 02:53:28;;;;;;;;;;;;;;;;;;2100143;28;1316;-92
2021/07/26 02:54:28;;;;;;;;;;;;;;;;;;2107991;28;1358;-92
2021/07/26 02:55:30;;;;;;;;;;;;;;;;;;2107880;28;1976;-93
2021/07/26 02:56:31;;;;;;;;;;;;;;;;;;2091705;28;1208;-92
2021/07/26 02:57:33;;;;;;;;;;;;;;;;;;2087566;28;2094;-91
2021/07/26 02:58:34;;;;;;;;;;;;;;;;;;2091752;28;1193;-92
2021/07/26 02:59:36;;;;;;;;;;;;;;;;;;2098425;28;2022;-91
2021/07/26 03:00:36;;;;;;;;;;;;;;;;;;2108036;28;1371;-92
2021/07/26 03:01:39;;;;;;;;;;;;;;;;;;2108321;28;1434;-91
2021/07/26 03:02:40;;;;;;;;;;;;;;;;;;2083148;28;1417;-92
2021/07/26 03:03:41;;;;;;;;;;;;;;;;;;2074700;28;1491;-93
2021/07/26 03:04:43;;;;;;;;;;;;;;;;;;2083551;28;1422;-92
2021/07/26 03:05:44;;;;;;;;;;;;;;;;;;2091853;28;1344;-93
2021/07/26 03:06:46;;;;;;;;;;;;;;;;;;2082991;28;1301;-92
2021/07/26 03:07:46;;;;;;;;;;;;;;;;;;2091349;28;1528;-92
2021/07/26 03:08:50;;;;;;;;;;;;;;;;;;2099325;28;1356;-91
2021/07/26 03:09:51;;;;;;;;;;;;;;;;;;2083659;28;1516;-92
2021/07/26 03:10:59;;;;;;;;;;;;;;;;;;2090948;28;1064;-92
2021/07/26 03:11:59;;;;;;;;;;;;;;;;;;2099655;28;1403;-92
2021/07/26 03:13:02;;;;;;;;;;;;;;;;;;2098386;28;1884;-93
2021/07/26 03:14:03;;;;;;;;;;;;;;;;;;2099793;28;1211;-92
2021/07/26 03:15:05;;;;;;;;;;;;;;;;;;2108252;28;1459;-93
2021/07/26 03:16:06;;;;;;;;;;;;;;;;;;2099499;28;1919;-92
2021/07/26 03:17:08;;;;;;;;;;;;;;;;;;2091158;28;1401;-93
2021/07/26 03:18:09;;;;;;;;;;;;;;;;;;2091939;28;1187;-92
2021/07/26 03:19:11;;;;;;;;;;;;;;;;;;2099438;28;1323;-93
2021/07/26 03:20:13;;;;;;;;;;;;;;;;;;2099702;28;1298;-93
2021/07/26 03:21:15;;;;;;;;;;;;;;;;;;2099539;28;1432;-94
2021/07/26 03:22:31;;;;;;;;;;;;;;;;;;2091732;28;1466;-93
2021/07/26 03:23:33;;;;;;;;;;;;;;;;;;2089826;28;1298;-93
2021/07/26 03:24:36;;;;;;;;;;;;;;;;;;2099436;28;1328;-93
2021/07/26 03:25:39;;;;;;;;;;;;;;;;;;2099526;28;1411;-93
2021/07/26 03:26:40;;;;;;;;;;;;;;;;;;2099703;28;1203;-93
2021/07/26 03:27:42;;;;;;;;;;;;;;;;;;2099626;28;1254;-92
2021/07/26 03:28:44;;;;;;;;;;;;;;;;;;2091323;28;1243;-91
2021/07/26 03:29:45;;;;;;;;;;;;;;;;;;2099905;28;1216;-93
2021/07/26 03:30:47;;;;;;;;;;;;;;;;;;2099807;28;1395;-93
2021/07/26 03:31:48;;;;;;;;;;;;;;;;;;2107795;28;1229;-92
2021/07/26 03:32:50;;;;;;;;;;;;;;;;;;2098957;28;1230;-92
2021/07/26 03:33:52;;;;;;;;;;;;;;;;;;2091433;28;1310;-93
2021/07/26 03:34:52;;;;;;;;;;;;;;;;;;2107687;28;1237;-92
2021/07/26 03:35:54;;;;;;;;;;;;;;;;;;2108402;28;1902;-92
2021/07/26 03:36:56;;;;;;;;;;;;;;;;;;2107994;28;1292;-92
2021/07/26 03:37:57;;;;;;;;;;;;;;;;;;2092259;28;1702;-93
2021/07/26 03:38:59;;;;;;;;;;;;;;;;;;2099101;28;1043;-94
2021/07/26 03:40:01;;;;;;;;;;;;;;;;;;2091207;28;1228;-92
2021/07/26 03:41:03;;;;;;;;;;;;;;;;;;2090728;28;1445;-95
2021/07/26 03:42:04;;;;;;;;;;;;;;;;;;2107842;28;1444;-94
2021/07/26 03:43:06;;;;;;;;;;;;;;;;;;2115943;28;1146;-96
2021/07/26 03:44:07;;;;;;;;;;;;;;;;;;2111098;28;2025;-94
2021/07/26 03:45:10;;;;;;;;;;;;;;;;;;2108031;28;894;-96
2021/07/26 03:46:10;;;;;;;;;;;;;;;;;;2108137;28;1327;-95
2021/07/26 03:47:12;;;;;;;;;;;;;;;;;;2107423;28;1386;-95
2021/07/26 03:48:13;;;;;;;;;;;;;;;;;;2107633;28;1329;-95
2021/07/26 03:49:15;;;;;;;;;;;;;;;;;;2107905;28;1387;-95
2021/07/26 03:50:16;;;;;;;;;;;;;;;;;;2108041;28;1379;-94
2021/07/26 03:51:18;;;;;;;;;;;;;;;;;;2107975;28;1308;-95
2021/07/26 03:52:19;;;;;;;;;;;;;;;;;;2115469;28;2036;-95
2021/07/26 03:53:21;;;;;;;;;;;;;;;;;;2108081;28;1258;-96
2021/07/26 03:54:21;;;;;;;;;;;;;;;;;;2107405;28;1363;-93
2021/07/26 03:55:26;;;;;;;;;;;;;;;;;;2108236;28;807;-95
2021/07/26 03:56:27;;;;;;;;;;;;;;;;;;2107336;28;1973;-96
2021/07/26 03:57:28;;;;;;;;;;;;;;;;;;2102986;28;1307;-95
2021/07/26 03:58:29;;;;;;;;;;;;;;;;;;2116001;28;1317;-94
2021/07/26 03:59:31;;;;;;;;;;;;;;;;;;2107683;28;1379;-94
2021/07/26 04:00:32;;;;;;;;;;;;;;;;;;2099131;28;1235;-94
2021/07/26 04:01:34;;;;;;;;;;;;;;;;;;2107751;28;1176;-95
2021/07/26 04:02:36;;;;;;;;;;;;;;;;;;2107502;28;1443;-95
2021/07/26 04:03:38;;;;;;;;;;;;;;;;;;2100022;28;1333;-94
2021/07/26 04:04:38;;;;;;;;;;;;;;;;;;2107972;28;1213;-94
2021/07/26 04:05:43;;;;;;;;;;;;;;;;;;2108101;28;1463;-94
2021/07/26 04:06:48;;;;;;;;;;;;;;;;;;2100063;28;1458;-94
2021/07/26 04:07:51;;;;;;;;;;;;;;;;;;2099910;28;1468;-96
2021/07/26 04:08:54;;;;;;;;;;;;;;;;;;2100777;28;1594;-95
2021/07/26 04:09:58;;;;;;;;;;;;;;;;;;2108282;28;1584;-95
2021/07/26 04:11:06;;;;;;;;;;;;;;;;;;2115818;28;1196;-95
2021/07/26 04:12:09;;;;;;;;;;;;;;;;;;2116198;28;1292;-95
2021/07/26 04:13:11;;;;;;;;;;;;;;;;;;2099549;28;1356;-95
2021/07/26 04:14:11;;;;;;;;;;;;;;;;;;2099363;28;1292;-95
2021/07/26 04:15:13;;;;;;;;;;;;;;;;;;2100203;28;1445;-95
2021/07/26 04:16:15;;;;;;;;;;;;;;;;;;2101365;28;1975;-95
2021/07/26 04:17:16;;;;;;;;;;;;;;;;;;2102498;28;2068;-95
2021/07/26 04:18:18;;;;;;;;;;;;;;;;;;2109748;28;1161;-95
2021/07/26 04:19:18;;;;;;;;;;;;;;;;;;2105995;28;1862;-95
2021/07/26 04:20:20;;;;;;;;;;;;;;;;;;2101197;28;1138;-95
2021/07/26 04:21:27;;;;;;;;;;;;;;;;;;2109196;28;1340;-94
2021/07/26 04:22:29;;;;;;;;;;;;;;;;;;2117327;28;2056;-94
2021/07/26 04:23:31;;;;;;;;;;;;;;;;;;2109232;28;1261;-96
2021/07/26 04:24:32;;;;;;;;;;;;;;;;;;2109043;28;1944;-95
2021/07/26 04:25:34;;;;;;;;;;;;;;;;;;2109611;28;1407;-95
2021/07/26 04:26:36;;;;;;;;;;;;;;;;;;2108772;28;1359;-94
2021/07/26 04:27:38;;;;;;;;;;;;;;;;;;2101292;28;1845;-95
2021/07/26 04:28:39;;;;;;;;;;;;;;;;;;2092418;28;1282;-96
2021/07/26 04:29:41;;;;;;;;;;;;;;;;;;2100835;28;1436;-95
2021/07/26 04:30:41;;;;;;;;;;;;;;;;;;2103616;28;1427;-93
2021/07/26 04:31:43;;;;;;;;;;;;;;;;;;2098686;28;1236;-94
2021/07/26 04:32:46;;;;;;;;;;;;;;;;;;2103221;28;2148;-95
2021/07/26 04:33:48;;;;;;;;;;;;;;;;;;2111780;28;1328;-95
2021/07/26 04:34:49;;;;;;;;;;;;;;;;;;2117741;28;1369;-96
2021/07/26 04:35:51;;;;;;;;;;;;;;;;;;2117911;28;1060;-91
2021/07/26 04:36:51;;;;;;;;;;;;;;;;;;2117840;28;1914;-95
2021/07/26 04:37:53;;;;;;;;;;;;;;;;;;2117034;28;1864;-96
2021/07/26 04:38:54;;;;;;;;;;;;;;;;;;2109054;28;1414;-94
2021/07/26 04:39:56;;;;;;;;;;;;;;;;;;2118042;28;842;-95
2021/07/26 04:40:57;;;;;;;;;;;;;;;;;;2117201;28;1350;-95
2021/07/26 04:42:00;;;;;;;;;;;;;;;;;;2109009;28;1501;-95
2021/07/26 04:43:01;;;;;;;;;;;;;;;;;;2108920;28;1291;-94
2021/07/26 04:44:04;;;;;;;;;;;;;;;;;;2117349;28;1067;-95
2021/07/26 04:45:05;;;;;;;;;;;;;;;;;;2117674;28;1297;-95
2021/07/26 04:46:09;;;;;;;;;;;;;;;;;;2109645;28;1307;-95
2021/07/26 04:47:09;;;;;;;;;;;;;;;;;;2116942;28;2019;-94
2021/07/26 04:48:11;;;;;;;;;;;;;;;;;;2109016;28;1298;-95
2021/07/26 04:49:12;;;;;;;;;;;;;;;;;;2109270;28;1309;-96
2021/07/26 04:50:15;;;;;;;;;;;;;;;;;;2100794;28;1313;-95
2021/07/26 04:51:16;;;;;;;;;;;;;;;;;;2100984;28;1500;-95
2021/07/26 04:52:18;;;;;;;;;;;;;;;;;;2109463;28;1390;-95
2021/07/26 04:53:19;;;;;;;;;;;;;;;;;;2100704;28;1286;-95
2021/07/26 04:54:21;;;;;;;;;;;;;;;;;;2101042;28;1218;-96
2021/07/26 04:55:22;;;;;;;;;;;;;;;;;;2109580;28;1509;-95
2021/07/26 04:56:23;;;;;;;;;;;;;;;;;;2108903;28;1965;-96
2021/07/26 04:57:27;;;;;;;;;;;;;;;;;;2100772;28;1520;-96
2021/07/26 04:58:27;;;;;;;;;;;;;;;;;;2100636;28;1402;-93
2021/07/26 04:59:29;;;;;;;;;;;;;;;;;;2108921;28;1216;-95
2021/07/26 05:00:30;;;;;;;;;;;;;;;;;;2117085;28;1306;-94
2021/07/26 05:01:32;;;;;;;;;;;;;;;;;;2109612;28;1327;-95
2021/07/26 05:02:33;;;;;;;;;;;;;;;;;;2112754;28;938;-95
2021/07/26 05:03:35;;;;;;;;;;;;;;;;;;2117539;28;1388;-95
2021/07/26 05:04:35;;;;;;;;;;;;;;;;;;2117234;28;1258;-94
2021/07/26 05:05:37;;;;;;;;;;;;;;;;;;2108944;28;1254;-94
2021/07/26 05:06:38;;;;;;;;;;;;;;;;;;2109438;28;1600;-94
2021/07/26 05:07:42;;;;;;;;;;;;;;;;;;2109207;28;1254;-95
2021/07/26 05:08:43;;;;;;;;;;;;;;;;;;2100847;28;1302;-94
2021/07/26 05:09:45;;;;;;;;;;;;;;;;;;2100976;28;1206;-95
2021/07/26 05:10:46;;;;;;;;;;;;;;;;;;2109059;28;1449;-95
2021/07/26 05:11:48;;;;;;;;;;;;;;;;;;2108775;28;1350;-95
2021/07/26 05:12:51;;;;;;;;;;;;;;;;;;2108505;28;1313;-95
2021/07/26 05:13:52;;;;;;;;;;;;;;;;;;2100654;28;1465;-95
2021/07/26 05:14:53;;;;;;;;;;;;;;;;;;2109249;28;937;-95
2021/07/26 05:15:55;;;;;;;;;;;;;;;;;;2100767;28;1306;-95
2021/07/26 05:16:56;;;;;;;;;;;;;;;;;;2101128;28;1974;-94
2021/07/26 05:17:58;;;;;;;;;;;;;;;;;;2124170;27;2101;-96
2021/07/26 05:18:59;;;;;;;;;;;;;;;;;;2108510;28;1861;-95
2021/07/26 05:20:01;;;;;;;;;;;;;;;;;;2100365;28;1392;-95
2021/07/26 05:21:01;;;;;;;;;;;;;;;;;;2092279;28;1329;-95
2021/07/26 05:22:03;;;;;;;;;;;;;;;;;;2092275;28;1357;-95
2021/07/26 05:23:07;;;;;;;;;;;;;;;;;;2116158;28;1300;-96
2021/07/26 05:24:09;;;;;;;;;;;;;;;;;;2108543;28;1401;-95
2021/07/26 05:25:10;;;;;;;;;;;;;;;;;;2108762;28;1104;-95
2021/07/26 05:26:12;;;;;;;;;;;;;;;;;;2108451;28;1378;-95
2021/07/26 05:27:13;;;;;;;;;;;;;;;;;;2099474;28;1302;-95
2021/07/26 05:28:16;;;;;;;;;;;;;;;;;;2100440;28;1300;-96
2021/07/26 05:29:16;;;;;;;;;;;;;;;;;;2100667;28;1270;-96
2021/07/26 05:30:18;;;;;;;;;;;;;;;;;;2108736;28;1229;-96
2021/07/26 05:31:19;;;;;;;;;;;;;;;;;;2117130;28;1241;-96
2021/07/26 05:32:21;;;;;;;;;;;;;;;;;;2110746;28;1163;-96
2021/07/26 05:33:22;;;;;;;;;;;;;;;;;;2117369;28;1194;-96
2021/07/26 05:34:24;;;;;;;;;;;;;;;;;;2103723;28;2225;-94
2021/07/26 05:35:24;;;;;;;;;;;;;;;;;;2108857;28;1382;-95
2021/07/26 05:36:26;;;;;;;;;;;;;;;;;;2108764;28;1281;-95
2021/07/26 05:37:27;;;;;;;;;;;;;;;;;;2111412;28;1960;-95
2021/07/26 05:38:29;;;;;;;;;;;;;;;;;;2117467;28;1466;-96
2021/07/26 05:39:29;;;;;;;;;;;;;;;;;;2100551;28;1377;-96
2021/07/26 05:40:32;;;;;;;;;;;;;;;;;;2092048;28;1349;-96
2021/07/26 05:41:32;;;;;;;;;;;;;;;;;;2100323;28;1296;-96
2021/07/26 05:42:35;;;;;;;;;;;;;;;;;;2116544;28;1208;-96
2021/07/26 05:43:37;;;;;;;;;;;;;;;;;;2109084;28;1385;-96
2021/07/26 05:44:39;;;;;;;;;;;;;;;;;;2108825;28;1448;-95
2021/07/26 05:45:40;;;;;;;;;;;;;;;;;;2109188;28;1213;-94
2021/07/26 05:46:42;;;;;;;;;;;;;;;;;;2108682;28;1263;-95
2021/07/26 05:47:47;;;;;;;;;;;;;;;;;;2117709;28;1206;-93
2021/07/26 05:48:49;;;;;;;;;;;;;;;;;;2118251;28;1491;-96
2021/07/26 05:49:49;;;;;;;;;;;;;;;;;;2110381;28;1323;-95
2021/07/26 05:50:51;;;;;;;;;;;;;;;;;;2109859;28;1244;-96
2021/07/26 05:51:52;;;;;;;;;;;;;;;;;;2109521;28;1382;-95
2021/07/26 05:52:54;;;;;;;;;;;;;;;;;;2117779;28;1038;-95
2021/07/26 05:53:55;;;;;;;;;;;;;;;;;;2116959;28;2091;-94
2021/07/26 05:54:57;;;;;;;;;;;;;;;;;;2100689;28;846;-91
2021/07/26 05:55:57;;;;;;;;;;;;;;;;;;2100637;28;1326;-92
2021/07/26 05:57:02;;;;;;;;;;;;;;;;;;2099497;28;2001;-89
2021/07/26 05:58:04;;;;;;;;;;;;;;;;;;2116612;28;1475;-89
2021/07/26 05:59:08;;;;;;;;;;;;;;;;;;2100284;28;1449;-84
2021/07/26 06:00:12;;;;;;;;;;;;;;;;;;2100490;28;1392;-84
2021/07/26 06:01:25;;;;;;;;;;;;;;;;;;2092138;28;1728;-84
2021/07/26 06:02:26;;;;;;;;;;;;;;;;;;2096694;28;1339;-84
2021/07/26 06:03:28;;;;;;;;;;;;;;;;;;2108703;28;1568;-84
2021/07/26 06:04:28;;;;;;;;;;;;;;;;;;2116485;28;1999;-84
2021/07/26 06:05:30;;;;;;;;;;;;;;;;;;2117828;28;868;-84
2021/07/26 06:06:31;;;;;;;;;;;;;;;;;;2117059;28;1366;-85
2021/07/26 06:07:32;;;;;;;;;;;;;;;;;;2116733;28;1419;-85
2021/07/26 06:08:33;;;;;;;;;;;;;;;;;;2116696;28;902;-85
2021/07/26 06:09:36;;;;;;;;;;;;;;;;;;2108117;28;1366;-85
2021/07/26 06:10:37;;;;;;;;;;;;;;;;;;2100305;28;1694;-85
2021/07/26 06:11:38;;;;;;;;;;;;;;;;;;2116872;28;1330;-85
2021/07/26 06:12:39;;;;;;;;;;;;;;;;;;2108513;28;1228;-85
2021/07/26 06:13:41;;;;;;;;;;;;;;;;;;2107978;28;1284;-85
2021/07/26 06:14:43;;;;;;;;;;;;;;;;;;2099754;28;1977;-85
2021/07/26 06:15:44;;;;;;;;;;;;;;;;;;2100109;28;1274;-85
2021/07/26 06:16:46;;;;;;;;;;;;;;;;;;2083116;28;1983;-85
2021/07/26 06:17:47;;;;;;;;;;;;;;;;;;2091502;28;1305;-85
2021/07/26 06:18:48;;;;;;;;;;;;;;;;;;2108275;28;1245;-86
2021/07/26 06:19:50;;;;;;;;;;;;;;;;;;2108329;28;1540;-85
2021/07/26 06:20:50;;;;;;;;;;;;;;;;;;2107999;28;1435;-85
2021/07/26 06:21:54;;;;;;;;;;;;;;;;;;2108279;28;1513;-86
2021/07/26 06:22:54;;;;;;;;;;;;;;;;;;2108640;28;1719;-85
2021/07/26 06:23:56;;;;;;;;;;;;;;;;;;2108177;28;1976;-86
2021/07/26 06:24:57;;;;;;;;;;;;;;;;;;2108197;28;1301;-85
2021/07/26 06:25:58;;;;;;;;;;;;;;;;;;2108764;28;831;-86
2021/07/26 06:26:59;;;;;;;;;;;;;;;;;;2116670;28;1259;-85
2021/07/26 06:28:01;;;;;;;;;;;;;;;;;;2116854;28;1318;-85
2021/07/26 06:29:02;;;;;;;;;;;;;;;;;;2108060;28;1496;-85
2021/07/26 06:30:06;;;;;;;;;;;;;;;;;;2107739;28;1677;-86
2021/07/26 06:31:07;;;;;;;;;;;;;;;;;;2108453;28;1207;-85
2021/07/26 06:32:09;;;;;;;;;;;;;;;;;;2116640;28;1262;-86
2021/07/26 06:33:10;;;;;;;;;;;;;;;;;;2116476;28;1288;-86
2021/07/26 06:34:11;;;;;;;;;;;;;;;;;;2116449;28;1364;-85
2021/07/26 06:35:12;;;;;;;;;;;;;;;;;;2116116;28;1348;-86
2021/07/26 06:36:14;;;;;;;;;;;;;;;;;;2117183;28;1043;-85
2021/07/26 06:37:15;;;;;;;;;;;;;;;;;;2116602;28;1979;-86
2021/07/26 06:38:16;;;;;;;;;;;;;;;;;;2107900;28;1420;-85
2021/07/26 06:39:17;;;;;;;;;;;;;;;;;;2083050;28;1404;-86
2021/07/26 06:40:19;;;;;;;;;;;;;;;;;;2099862;28;1234;-86
2021/07/26 06:41:20;;;;;;;;;;;;;;;;;;2107662;28;1558;-85
2021/07/26 06:42:22;;;;;;;;;;;;;;;;;;2103503;28;925;-91
2021/07/26 06:43:23;;;;;;;;;;;;;;;;;;2099725;28;1275;-85
2021/07/26 06:44:24;;;;;;;;;;;;;;;;;;2099369;28;1384;-85
2021/07/26 06:45:26;;;;;;;;;;;;;;;;;;2091717;28;886;-85
2021/07/26 06:46:28;;;;;;;;;;;;;;;;;;2091458;28;1208;-86
2021/07/26 06:47:29;;;;;;;;;;;;;;;;;;2099589;28;1625;-86
2021/07/26 06:48:31;;;;;;;;;;;;;;;;;;2091165;28;1381;-85
2021/07/26 06:49:32;;;;;;;;;;;;;;;;;;2097671;28;2055;-85
2021/07/26 06:50:34;;;;;;;;;;;;;;;;;;2099674;28;883;-86
2021/07/26 06:51:35;;;;;;;;;;;;;;;;;;2116424;28;1779;-86
2021/07/26 06:52:36;;;;;;;;;;;;;;;;;;2103602;28;1333;-86
2021/07/26 06:53:37;;;;;;;;;;;;;;;;;;2091195;28;1196;-86
2021/07/26 06:54:39;;;;;;;;;;;;;;;;;;2106912;28;1502;-86
2021/07/26 06:55:39;;;;;;;;;;;;;;;;;;2107711;28;1323;-86
2021/07/26 06:56:41;;;;;;;;;;;;;;;;;;2115627;28;1349;-86
2021/07/26 06:57:41;;;;;;;;;;;;;;;;;;2116442;28;1967;-86
2021/07/26 06:58:43;;;;;;;;;;;;;;;;;;2115771;28;1280;-85
2021/07/26 06:59:45;;;;;;;;;;;;;;;;;;2099588;28;910;-85
2021/07/26 07:00:47;;;;;;;;;;;;;;;;;;2091315;28;1349;-86
2021/07/26 07:01:49;;;;;;;;;;;;;;;;;;2091316;28;1313;-86
2021/07/26 07:02:51;;;;;;;;;;;;;;;;;;2091484;28;812;-87
2021/07/26 07:03:55;;;;;;;;;;;;;;;;;;2099617;28;2054;-86
2021/07/26 07:04:56;;;;;;;;;;;;;;;;;;2107469;28;1569;-86
2021/07/26 07:06:01;;;;;;;;;;;;;;;;;;2091336;28;1359;-86
2021/07/26 07:07:05;;;;;;;;;;;;;;;;;;2091210;28;1561;-85
2021/07/26 07:08:06;;;;;;;;;;;;;;;;;;2108016;28;774;-86
2021/07/26 07:09:07;;;;;;;;;;;;;;;;;;2110622;28;1353;-86
2021/07/26 07:10:09;;;;;;;;;;;;;;;;;;2116453;28;927;-85
2021/07/26 07:11:11;;;;;;;;;;;;;;;;;;2115815;28;1306;-86